sensor_id;sensor_type;location;lat;lon;timestamp;P1;durP1;ratioP1;P2;durP2;ratioP2
2892;SDS011;1456;51.840;12.184;2023-02-22T00:03:24;2.97;;;2.73;;
2892;SDS011;1456;51.840;12.184;2023-02-22T00:08:20;2.40;;;1.93;;
2892;SDS011;1456;51.840;12.184;2023-02-22T00:10:47;2.93;;;2.77;;
2892;SDS011;1456;51.840;12.184;2023-02-22T00:13:16;2.03;;;2.03;;
2892;SDS011;1456;51.840;12.184;2023-02-22T00:15:44;2.83;;;1.43;;
2892;SDS011;1456;51.840;12.184;2023-02-22T00:18:13;1.40;;;1.40;;
2892;SDS011;1456;51.840;12.184;2023-02-22T00:20:41;1.83;;;1.73;;
2892;SDS011;1456;51.840;12.184;2023-02-22T00:23:07;4.67;;;1.30;;
2892;SDS011;1456;51.840;12.184;2023-02-22T00:25:38;1.47;;;1.37;;
2892;SDS011;1456;51.840;12.184;2023-02-22T00:28:03;2.90;;;2.10;;
2892;SDS011;1456;51.840;12.184;2023-02-22T00:32:58;1.13;;;1.03;;
2892;SDS011;1456;51.840;12.184;2023-02-22T00:35:24;4.93;;;3.30;;
2892;SDS011;1456;51.840;12.184;2023-02-22T00:37:57;1.80;;;1.73;;
2892;SDS011;1456;51.840;12.184;2023-02-22T00:40:25;2.57;;;2.47;;
2892;SDS011;1456;51.840;12.184;2023-02-22T00:42:54;2.13;;;2.03;;
2892;SDS011;1456;51.840;12.184;2023-02-22T00:45:22;1.93;;;1.83;;
2892;SDS011;1456;51.840;12.184;2023-02-22T00:47:50;1.57;;;1.47;;
2892;SDS011;1456;51.840;12.184;2023-02-22T00:50:17;4.90;;;4.40;;
2892;SDS011;1456;51.840;12.184;2023-02-22T00:52:44;2.13;;;2.03;;
2892;SDS011;1456;51.840;12.184;2023-02-22T00:55:14;6.23;;;1.17;;
2892;SDS011;1456;51.840;12.184;2023-02-22T00:57:43;2.53;;;2.17;;
2892;SDS011;1456;51.840;12.184;2023-02-22T01:00:13;1.57;;;1.47;;
2892;SDS011;1456;51.840;12.184;2023-02-22T01:02:51;1.33;;;1.33;;
2892;SDS011;1456;51.840;12.184;2023-02-22T01:05:18;3.10;;;1.97;;
2892;SDS011;1456;51.840;12.184;2023-02-22T01:07:46;2.33;;;2.13;;
2892;SDS011;1456;51.840;12.184;2023-02-22T01:10:15;2.03;;;1.97;;
2892;SDS011;1456;51.840;12.184;2023-02-22T01:12:43;3.23;;;2.90;;
2892;SDS011;1456;51.840;12.184;2023-02-22T01:15:09;1.37;;;1.37;;
2892;SDS011;1456;51.840;12.184;2023-02-22T01:17:37;4.37;;;3.60;;
2892;SDS011;1456;51.840;12.184;2023-02-22T01:20:04;3.90;;;3.73;;
2892;SDS011;1456;51.840;12.184;2023-02-22T01:22:34;4.60;;;1.43;;
2892;SDS011;1456;51.840;12.184;2023-02-22T01:25:01;1.93;;;1.83;;
2892;SDS011;1456;51.840;12.184;2023-02-22T01:27:30;3.27;;;3.17;;
2892;SDS011;1456;51.840;12.184;2023-02-22T01:29:56;3.13;;;2.60;;
2892;SDS011;1456;51.840;12.184;2023-02-22T01:32:21;2.17;;;2.17;;
2892;SDS011;1456;51.840;12.184;2023-02-22T01:34:47;2.33;;;2.23;;
2892;SDS011;1456;51.840;12.184;2023-02-22T01:37:13;2.20;;;2.10;;
2892;SDS011;1456;51.840;12.184;2023-02-22T01:39:40;1.90;;;1.30;;
2892;SDS011;1456;51.840;12.184;2023-02-22T01:42:05;1.80;;;1.80;;
2892;SDS011;1456;51.840;12.184;2023-02-22T01:44:35;3.13;;;2.83;;
2892;SDS011;1456;51.840;12.184;2023-02-22T01:47:03;1.60;;;1.50;;
2892;SDS011;1456;51.840;12.184;2023-02-22T01:49:35;10.60;;;2.47;;
2892;SDS011;1456;51.840;12.184;2023-02-22T01:52:07;2.20;;;2.00;;
2892;SDS011;1456;51.840;12.184;2023-02-22T01:54:40;4.87;;;2.93;;
2892;SDS011;1456;51.840;12.184;2023-02-22T01:57:52;2.07;;;1.97;;
2892;SDS011;1456;51.840;12.184;2023-02-22T02:00:04;3.53;;;2.60;;
2892;SDS011;1456;51.840;12.184;2023-02-22T02:02:37;3.87;;;2.80;;
2892;SDS011;1456;51.840;12.184;2023-02-22T02:05:09;2.63;;;2.53;;
2892;SDS011;1456;51.840;12.184;2023-02-22T02:07:35;3.03;;;2.83;;
2892;SDS011;1456;51.840;12.184;2023-02-22T02:10:05;8.83;;;2.63;;
2892;SDS011;1456;51.840;12.184;2023-02-22T02:12:38;2.23;;;2.13;;
2892;SDS011;1456;51.840;12.184;2023-02-22T02:15:21;2.80;;;2.70;;
2892;SDS011;1456;51.840;12.184;2023-02-22T02:17:51;3.10;;;2.90;;
2892;SDS011;1456;51.840;12.184;2023-02-22T02:28:34;3.83;;;2.03;;
2892;SDS011;1456;51.840;12.184;2023-02-22T02:34:37;2.50;;;2.20;;
2892;SDS011;1456;51.840;12.184;2023-02-22T02:42:19;2.20;;;2.00;;
2892;SDS011;1456;51.840;12.184;2023-02-22T02:44:52;2.93;;;2.50;;
2892;SDS011;1456;51.840;12.184;2023-02-22T02:47:31;1.93;;;1.80;;
2892;SDS011;1456;51.840;12.184;2023-02-22T02:50:12;3.17;;;2.87;;
2892;SDS011;1456;51.840;12.184;2023-02-22T02:52:45;2.13;;;2.00;;
2892;SDS011;1456;51.840;12.184;2023-02-22T02:55:13;8.20;;;1.17;;
2892;SDS011;1456;51.840;12.184;2023-02-22T02:57:40;2.60;;;2.30;;
2892;SDS011;1456;51.840;12.184;2023-02-22T03:00:06;1.90;;;1.80;;
2892;SDS011;1456;51.840;12.184;2023-02-22T03:13:34;1.80;;;1.80;;
2892;SDS011;1456;51.840;12.184;2023-02-22T03:16:20;1.87;;;1.77;;
2892;SDS011;1456;51.840;12.184;2023-02-22T03:26:44;3.23;;;2.10;;
2892;SDS011;1456;51.840;12.184;2023-02-22T03:29:21;2.10;;;2.00;;
2892;SDS011;1456;51.840;12.184;2023-02-22T03:31:52;3.70;;;1.97;;
2892;SDS011;1456;51.840;12.184;2023-02-22T03:34:30;2.73;;;2.40;;
2892;SDS011;1456;51.840;12.184;2023-02-22T03:37:02;3.10;;;2.90;;
2892;SDS011;1456;51.840;12.184;2023-02-22T03:39:32;0.90;;;0.90;;
2892;SDS011;1456;51.840;12.184;2023-02-22T03:42:05;1.90;;;1.80;;
2892;SDS011;1456;51.840;12.184;2023-02-22T03:44:40;1.73;;;1.67;;
2892;SDS011;1456;51.840;12.184;2023-02-22T03:47:12;2.43;;;2.20;;
2892;SDS011;1456;51.840;12.184;2023-02-22T03:49:48;4.13;;;2.80;;
2892;SDS011;1456;51.840;12.184;2023-02-22T03:52:19;3.83;;;1.00;;
2892;SDS011;1456;51.840;12.184;2023-02-22T03:54:47;0.60;;;0.60;;
2892;SDS011;1456;51.840;12.184;2023-02-22T03:57:26;2.43;;;2.33;;
2892;SDS011;1456;51.840;12.184;2023-02-22T03:59:55;1.00;;;1.00;;
2892;SDS011;1456;51.840;12.184;2023-02-22T04:02:21;5.67;;;1.23;;
2892;SDS011;1456;51.840;12.184;2023-02-22T04:04:48;4.73;;;2.77;;
2892;SDS011;1456;51.840;12.184;2023-02-22T04:07:14;2.00;;;1.80;;
2892;SDS011;1456;51.840;12.184;2023-02-22T04:09:42;4.13;;;3.43;;
2892;SDS011;1456;51.840;12.184;2023-02-22T04:12:07;2.30;;;2.20;;
2892;SDS011;1456;51.840;12.184;2023-02-22T04:14:33;3.80;;;3.50;;
2892;SDS011;1456;51.840;12.184;2023-02-22T04:16:59;1.30;;;1.30;;
2892;SDS011;1456;51.840;12.184;2023-02-22T04:19:25;2.13;;;1.90;;
2892;SDS011;1456;51.840;12.184;2023-02-22T04:21:52;2.40;;;2.20;;
2892;SDS011;1456;51.840;12.184;2023-02-22T04:24:17;9.27;;;3.20;;
2892;SDS011;1456;51.840;12.184;2023-02-22T04:26:43;1.97;;;1.77;;
2892;SDS011;1456;51.840;12.184;2023-02-22T04:29:11;1.90;;;1.80;;
2892;SDS011;1456;51.840;12.184;2023-02-22T04:31:36;9.47;;;4.37;;
2892;SDS011;1456;51.840;12.184;2023-02-22T04:34:02;1.63;;;1.53;;
2892;SDS011;1456;51.840;12.184;2023-02-22T04:36:29;2.20;;;2.10;;
2892;SDS011;1456;51.840;12.184;2023-02-22T04:38:58;3.93;;;2.90;;
2892;SDS011;1456;51.840;12.184;2023-02-22T04:41:23;4.50;;;3.33;;
2892;SDS011;1456;51.840;12.184;2023-02-22T04:43:50;4.10;;;3.67;;
2892;SDS011;1456;51.840;12.184;2023-02-22T04:46:16;5.17;;;4.17;;
2892;SDS011;1456;51.840;12.184;2023-02-22T04:48:42;4.47;;;4.07;;
2892;SDS011;1456;51.840;12.184;2023-02-22T04:51:08;3.07;;;2.53;;
2892;SDS011;1456;51.840;12.184;2023-02-22T04:53:34;2.00;;;1.90;;
2892;SDS011;1456;51.840;12.184;2023-02-22T04:56:00;2.20;;;2.10;;
2892;SDS011;1456;51.840;12.184;2023-02-22T04:58:25;2.87;;;2.67;;
2892;SDS011;1456;51.840;12.184;2023-02-22T05:00:52;4.37;;;4.03;;
2892;SDS011;1456;51.840;12.184;2023-02-22T05:03:17;1.90;;;1.87;;
2892;SDS011;1456;51.840;12.184;2023-02-22T05:05:43;7.20;;;2.47;;
2892;SDS011;1456;51.840;12.184;2023-02-22T05:08:09;2.73;;;1.30;;
2892;SDS011;1456;51.840;12.184;2023-02-22T05:10:35;4.47;;;4.17;;
2892;SDS011;1456;51.840;12.184;2023-02-22T05:13:02;4.73;;;3.80;;
2892;SDS011;1456;51.840;12.184;2023-02-22T05:15:30;4.47;;;4.27;;
2892;SDS011;1456;51.840;12.184;2023-02-22T05:17:55;4.27;;;4.07;;
2892;SDS011;1456;51.840;12.184;2023-02-22T05:20:29;6.73;;;6.30;;
2892;SDS011;1456;51.840;12.184;2023-02-22T05:22:57;5.13;;;3.40;;
2892;SDS011;1456;51.840;12.184;2023-02-22T05:25:24;3.20;;;3.00;;
2892;SDS011;1456;51.840;12.184;2023-02-22T05:27:51;3.47;;;2.80;;
2892;SDS011;1456;51.840;12.184;2023-02-22T05:30:21;2.93;;;2.20;;
2892;SDS011;1456;51.840;12.184;2023-02-22T05:32:49;2.20;;;2.00;;
2892;SDS011;1456;51.840;12.184;2023-02-22T05:35:15;2.50;;;2.30;;
2892;SDS011;1456;51.840;12.184;2023-02-22T05:37:42;2.30;;;2.20;;
2892;SDS011;1456;51.840;12.184;2023-02-22T05:40:08;6.40;;;3.97;;
2892;SDS011;1456;51.840;12.184;2023-02-22T05:42:35;7.17;;;2.00;;
2892;SDS011;1456;51.840;12.184;2023-02-22T05:45:01;4.10;;;3.17;;
2892;SDS011;1456;51.840;12.184;2023-02-22T05:47:27;5.57;;;3.80;;
2892;SDS011;1456;51.840;12.184;2023-02-22T05:49:53;2.60;;;2.50;;
2892;SDS011;1456;51.840;12.184;2023-02-22T05:52:20;4.83;;;2.63;;
2892;SDS011;1456;51.840;12.184;2023-02-22T05:54:46;4.93;;;2.07;;
2892;SDS011;1456;51.840;12.184;2023-02-22T05:57:12;9.03;;;3.53;;
2892;SDS011;1456;51.840;12.184;2023-02-22T05:59:39;7.30;;;5.70;;
2892;SDS011;1456;51.840;12.184;2023-02-22T06:02:05;6.10;;;2.57;;
2892;SDS011;1456;51.840;12.184;2023-02-22T06:04:30;1.47;;;1.47;;
2892;SDS011;1456;51.840;12.184;2023-02-22T06:06:56;4.97;;;4.67;;
2892;SDS011;1456;51.840;12.184;2023-02-22T06:09:23;3.20;;;3.00;;
2892;SDS011;1456;51.840;12.184;2023-02-22T06:11:48;3.00;;;2.70;;
2892;SDS011;1456;51.840;12.184;2023-02-22T06:14:14;3.57;;;2.40;;
2892;SDS011;1456;51.840;12.184;2023-02-22T06:16:40;1.83;;;1.83;;
2892;SDS011;1456;51.840;12.184;2023-02-22T06:19:06;2.60;;;2.17;;
2892;SDS011;1456;51.840;12.184;2023-02-22T06:21:32;2.97;;;2.87;;
2892;SDS011;1456;51.840;12.184;2023-02-22T06:23:57;3.73;;;3.53;;
2892;SDS011;1456;51.840;12.184;2023-02-22T06:26:23;2.83;;;2.73;;
2892;SDS011;1456;51.840;12.184;2023-02-22T06:28:49;2.83;;;1.90;;
2892;SDS011;1456;51.840;12.184;2023-02-22T06:31:15;5.70;;;3.97;;
2892;SDS011;1456;51.840;12.184;2023-02-22T06:33:40;2.03;;;1.93;;
2892;SDS011;1456;51.840;12.184;2023-02-22T06:36:07;2.13;;;2.03;;
2892;SDS011;1456;51.840;12.184;2023-02-22T06:38:33;2.17;;;1.90;;
2892;SDS011;1456;51.840;12.184;2023-02-22T06:40:58;5.83;;;2.27;;
2892;SDS011;1456;51.840;12.184;2023-02-22T06:43:24;3.83;;;3.40;;
2892;SDS011;1456;51.840;12.184;2023-02-22T06:45:50;1.40;;;1.30;;
2892;SDS011;1456;51.840;12.184;2023-02-22T06:48:16;2.77;;;2.07;;
2892;SDS011;1456;51.840;12.184;2023-02-22T06:50:45;1.73;;;1.73;;
2892;SDS011;1456;51.840;12.184;2023-02-22T06:53:12;2.17;;;1.90;;
2892;SDS011;1456;51.840;12.184;2023-02-22T06:55:38;2.90;;;2.70;;
2892;SDS011;1456;51.840;12.184;2023-02-22T06:58:04;5.27;;;2.17;;
2892;SDS011;1456;51.840;12.184;2023-02-22T07:00:30;4.40;;;4.10;;
2892;SDS011;1456;51.840;12.184;2023-02-22T07:02:57;3.37;;;3.27;;
2892;SDS011;1456;51.840;12.184;2023-02-22T07:05:24;3.97;;;3.23;;
2892;SDS011;1456;51.840;12.184;2023-02-22T07:07:51;5.00;;;4.70;;
2892;SDS011;1456;51.840;12.184;2023-02-22T07:10:19;3.23;;;2.93;;
2892;SDS011;1456;51.840;12.184;2023-02-22T07:12:53;2.43;;;2.27;;
2892;SDS011;1456;51.840;12.184;2023-02-22T07:15:20;7.13;;;5.87;;
2892;SDS011;1456;51.840;12.184;2023-02-22T07:17:47;2.80;;;2.60;;
2892;SDS011;1456;51.840;12.184;2023-02-22T07:22:44;3.90;;;3.60;;
2892;SDS011;1456;51.840;12.184;2023-02-22T07:25:10;2.50;;;2.30;;
2892;SDS011;1456;51.840;12.184;2023-02-22T07:27:40;2.20;;;2.10;;
2892;SDS011;1456;51.840;12.184;2023-02-22T07:30:20;4.73;;;1.70;;
2892;SDS011;1456;51.840;12.184;2023-02-22T07:32:50;3.37;;;3.23;;
2892;SDS011;1456;51.840;12.184;2023-02-22T07:35:19;2.10;;;2.00;;
2892;SDS011;1456;51.840;12.184;2023-02-22T07:37:49;3.03;;;2.83;;
2892;SDS011;1456;51.840;12.184;2023-02-22T07:40:16;3.03;;;2.93;;
2892;SDS011;1456;51.840;12.184;2023-02-22T07:42:52;2.73;;;2.50;;
2892;SDS011;1456;51.840;12.184;2023-02-22T07:45:29;6.00;;;3.77;;
2892;SDS011;1456;51.840;12.184;2023-02-22T07:47:57;4.27;;;3.57;;
2892;SDS011;1456;51.840;12.184;2023-02-22T07:50:25;3.83;;;3.53;;
2892;SDS011;1456;51.840;12.184;2023-02-22T07:52:52;6.33;;;4.20;;
2892;SDS011;1456;51.840;12.184;2023-02-22T07:55:20;3.00;;;2.80;;
2892;SDS011;1456;51.840;12.184;2023-02-22T07:57:49;3.07;;;2.17;;
2892;SDS011;1456;51.840;12.184;2023-02-22T08:00:22;3.13;;;2.93;;
2892;SDS011;1456;51.840;12.184;2023-02-22T08:02:49;4.13;;;3.80;;
2892;SDS011;1456;51.840;12.184;2023-02-22T08:05:15;4.30;;;3.67;;
2892;SDS011;1456;51.840;12.184;2023-02-22T08:07:41;3.37;;;3.17;;
2892;SDS011;1456;51.840;12.184;2023-02-22T08:10:08;4.67;;;3.50;;
2892;SDS011;1456;51.840;12.184;2023-02-22T08:12:34;8.33;;;2.47;;
2892;SDS011;1456;51.840;12.184;2023-02-22T08:15:04;1.70;;;1.67;;
2892;SDS011;1456;51.840;12.184;2023-02-22T08:17:31;7.80;;;1.30;;
2892;SDS011;1456;51.840;12.184;2023-02-22T08:19:57;1.63;;;1.53;;
2892;SDS011;1456;51.840;12.184;2023-02-22T08:22:28;4.43;;;4.13;;
2892;SDS011;1456;51.840;12.184;2023-02-22T08:24:55;7.57;;;4.40;;
2892;SDS011;1456;51.840;12.184;2023-02-22T08:27:22;3.30;;;3.00;;
2892;SDS011;1456;51.840;12.184;2023-02-22T08:29:52;10.57;;;2.10;;
2892;SDS011;1456;51.840;12.184;2023-02-22T08:32:18;4.83;;;4.43;;
2892;SDS011;1456;51.840;12.184;2023-02-22T08:34:44;6.97;;;2.73;;
2892;SDS011;1456;51.840;12.184;2023-02-22T08:37:10;4.33;;;3.20;;
2892;SDS011;1456;51.840;12.184;2023-02-22T08:39:38;1.47;;;1.40;;
2892;SDS011;1456;51.840;12.184;2023-02-22T08:42:04;10.40;;;3.30;;
2892;SDS011;1456;51.840;12.184;2023-02-22T08:44:29;8.50;;;3.20;;
2892;SDS011;1456;51.840;12.184;2023-02-22T08:46:55;5.27;;;3.57;;
2892;SDS011;1456;51.840;12.184;2023-02-22T08:49:22;2.60;;;2.50;;
2892;SDS011;1456;51.840;12.184;2023-02-22T08:51:48;3.43;;;3.23;;
2892;SDS011;1456;51.840;12.184;2023-02-22T08:54:14;4.87;;;4.47;;
2892;SDS011;1456;51.840;12.184;2023-02-22T08:56:41;10.67;;;3.60;;
2892;SDS011;1456;51.840;12.184;2023-02-22T08:59:07;2.20;;;2.10;;
2892;SDS011;1456;51.840;12.184;2023-02-22T09:01:33;2.17;;;2.07;;
2892;SDS011;1456;51.840;12.184;2023-02-22T09:03:59;7.83;;;3.20;;
2892;SDS011;1456;51.840;12.184;2023-02-22T09:06:26;4.43;;;2.40;;
2892;SDS011;1456;51.840;12.184;2023-02-22T09:08:52;2.60;;;2.40;;
2892;SDS011;1456;51.840;12.184;2023-02-22T09:11:19;1.53;;;1.53;;
2892;SDS011;1456;51.840;12.184;2023-02-22T09:13:45;4.20;;;2.83;;
2892;SDS011;1456;51.840;12.184;2023-02-22T09:16:12;3.17;;;2.97;;
2892;SDS011;1456;51.840;12.184;2023-02-22T09:18:40;1.57;;;1.53;;
2892;SDS011;1456;51.840;12.184;2023-02-22T09:21:05;2.00;;;1.90;;
2892;SDS011;1456;51.840;12.184;2023-02-22T09:23:31;2.23;;;2.13;;
2892;SDS011;1456;51.840;12.184;2023-02-22T09:25:58;3.50;;;3.33;;
2892;SDS011;1456;51.840;12.184;2023-02-22T09:28:34;3.27;;;2.97;;
2892;SDS011;1456;51.840;12.184;2023-02-22T09:31:00;2.10;;;2.00;;
2892;SDS011;1456;51.840;12.184;2023-02-22T09:33:27;2.90;;;2.80;;
2892;SDS011;1456;51.840;12.184;2023-02-22T09:35:52;1.73;;;1.63;;
2892;SDS011;1456;51.840;12.184;2023-02-22T09:38:19;6.07;;;2.83;;
2892;SDS011;1456;51.840;12.184;2023-02-22T09:40:49;4.40;;;4.10;;
2892;SDS011;1456;51.840;12.184;2023-02-22T09:43:55;1.83;;;1.73;;
2892;SDS011;1456;51.840;12.184;2023-02-22T09:46:38;2.03;;;1.80;;
2892;SDS011;1456;51.840;12.184;2023-02-22T09:52:07;2.20;;;2.20;;
2892;SDS011;1456;51.840;12.184;2023-02-22T09:54:43;2.63;;;2.53;;
2892;SDS011;1456;51.840;12.184;2023-02-22T09:57:17;2.13;;;1.90;;
2892;SDS011;1456;51.840;12.184;2023-02-22T10:05:57;3.50;;;3.20;;
2892;SDS011;1456;51.840;12.184;2023-02-22T10:08:15;5.00;;;3.33;;
2892;SDS011;1456;51.840;12.184;2023-02-22T10:10:43;15.23;;;4.73;;
2892;SDS011;1456;51.840;12.184;2023-02-22T10:24:43;2.37;;;2.20;;
2892;SDS011;1456;51.840;12.184;2023-02-22T10:32:57;8.23;;;2.57;;
2892;SDS011;1456;51.840;12.184;2023-02-22T10:35:32;4.30;;;4.00;;
2892;SDS011;1456;51.840;12.184;2023-02-22T10:38:21;22.57;;;2.93;;
2892;SDS011;1456;51.840;12.184;2023-02-22T10:43:28;1.57;;;1.57;;
2892;SDS011;1456;51.840;12.184;2023-02-22T10:45:59;2.97;;;2.77;;
2892;SDS011;1456;51.840;12.184;2023-02-22T10:48:27;5.23;;;5.03;;
2892;SDS011;1456;51.840;12.184;2023-02-22T10:50:57;3.67;;;3.50;;
2892;SDS011;1456;51.840;12.184;2023-02-22T10:53:26;4.90;;;4.57;;
2892;SDS011;1456;51.840;12.184;2023-02-22T11:06:28;6.00;;;4.00;;
2892;SDS011;1456;51.840;12.184;2023-02-22T11:11:48;2.57;;;2.47;;
2892;SDS011;1456;51.840;12.184;2023-02-22T11:14:30;2.17;;;2.07;;
2892;SDS011;1456;51.840;12.184;2023-02-22T11:16:57;5.33;;;3.80;;
2892;SDS011;1456;51.840;12.184;2023-02-22T11:19:25;4.33;;;4.13;;
2892;SDS011;1456;51.840;12.184;2023-02-22T11:22:07;3.70;;;3.50;;
2892;SDS011;1456;51.840;12.184;2023-02-22T11:27:19;2.83;;;2.73;;
2892;SDS011;1456;51.840;12.184;2023-02-22T11:29:51;9.93;;;3.57;;
2892;SDS011;1456;51.840;12.184;2023-02-22T11:32:20;4.50;;;3.90;;
2892;SDS011;1456;51.840;12.184;2023-02-22T11:34:52;9.03;;;5.80;;
2892;SDS011;1456;51.840;12.184;2023-02-22T11:37:43;3.63;;;2.60;;
2892;SDS011;1456;51.840;12.184;2023-02-22T11:42:46;4.13;;;3.93;;
2892;SDS011;1456;51.840;12.184;2023-02-22T11:45:35;4.63;;;4.30;;
2892;SDS011;1456;51.840;12.184;2023-02-22T11:48:01;4.07;;;3.77;;
2892;SDS011;1456;51.840;12.184;2023-02-22T11:50:50;6.60;;;6.00;;
2892;SDS011;1456;51.840;12.184;2023-02-22T11:58:50;4.97;;;4.23;;
2892;SDS011;1456;51.840;12.184;2023-02-22T12:01:24;5.50;;;5.07;;
2892;SDS011;1456;51.840;12.184;2023-02-22T12:18:05;2.77;;;2.63;;
2892;SDS011;1456;51.840;12.184;2023-02-22T12:20:49;4.87;;;4.43;;
2892;SDS011;1456;51.840;12.184;2023-02-22T12:23:21;5.13;;;4.83;;
2892;SDS011;1456;51.840;12.184;2023-02-22T12:28:34;7.80;;;7.13;;
2892;SDS011;1456;51.840;12.184;2023-02-22T12:31:15;5.50;;;5.17;;
2892;SDS011;1456;51.840;12.184;2023-02-22T12:33:51;9.47;;;5.40;;
2892;SDS011;1456;51.840;12.184;2023-02-22T12:36:30;4.43;;;4.33;;
2892;SDS011;1456;51.840;12.184;2023-02-22T12:39:41;5.33;;;5.23;;
2892;SDS011;1456;51.840;12.184;2023-02-22T12:42:14;6.30;;;6.20;;
2892;SDS011;1456;51.840;12.184;2023-02-22T12:44:45;6.10;;;5.90;;
2892;SDS011;1456;51.840;12.184;2023-02-22T12:47:18;7.70;;;7.50;;
2892;SDS011;1456;51.840;12.184;2023-02-22T12:52:46;12.20;;;11.80;;
2892;SDS011;1456;51.840;12.184;2023-02-22T12:58:44;11.30;;;10.50;;
2892;SDS011;1456;51.840;12.184;2023-02-22T13:01:28;10.37;;;9.97;;
2892;SDS011;1456;51.840;12.184;2023-02-22T13:04:00;11.37;;;11.07;;
2892;SDS011;1456;51.840;12.184;2023-02-22T13:20:35;9.97;;;9.77;;
2892;SDS011;1456;51.840;12.184;2023-02-22T13:23:02;7.80;;;7.70;;
2892;SDS011;1456;51.840;12.184;2023-02-22T13:28:57;9.70;;;9.50;;
2892;SDS011;1456;51.840;12.184;2023-02-22T13:48:50;7.50;;;7.40;;
2892;SDS011;1456;51.840;12.184;2023-02-22T13:56:59;7.00;;;6.73;;
2892;SDS011;1456;51.840;12.184;2023-02-22T13:59:32;8.67;;;8.43;;
2892;SDS011;1456;51.840;12.184;2023-02-22T14:02:01;8.43;;;8.23;;
2892;SDS011;1456;51.840;12.184;2023-02-22T14:06:56;10.40;;;9.90;;
2892;SDS011;1456;51.840;12.184;2023-02-22T14:12:58;8.20;;;7.97;;
2892;SDS011;1456;51.840;12.184;2023-02-22T14:15:17;8.90;;;8.60;;
2892;SDS011;1456;51.840;12.184;2023-02-22T14:20:33;7.10;;;7.00;;
2892;SDS011;1456;51.840;12.184;2023-02-22T14:26:09;9.10;;;8.67;;
2892;SDS011;1456;51.840;12.184;2023-02-22T14:28:49;8.80;;;8.40;;
2892;SDS011;1456;51.840;12.184;2023-02-22T14:31:23;8.33;;;7.83;;
2892;SDS011;1456;51.840;12.184;2023-02-22T14:42:29;8.20;;;7.97;;
2892;SDS011;1456;51.840;12.184;2023-02-22T14:45:02;6.53;;;6.30;;
2892;SDS011;1456;51.840;12.184;2023-02-22T14:55:58;6.17;;;5.93;;
2892;SDS011;1456;51.840;12.184;2023-02-22T15:06:48;4.60;;;4.33;;
2892;SDS011;1456;51.840;12.184;2023-02-22T15:14:26;5.90;;;4.67;;
2892;SDS011;1456;51.840;12.184;2023-02-22T15:16:54;3.63;;;3.43;;
2892;SDS011;1456;51.840;12.184;2023-02-22T15:19:24;6.60;;;6.03;;
2892;SDS011;1456;51.840;12.184;2023-02-22T15:21:55;5.97;;;5.43;;
2892;SDS011;1456;51.840;12.184;2023-02-22T15:24:29;6.80;;;5.03;;
2892;SDS011;1456;51.840;12.184;2023-02-22T15:27:04;3.83;;;3.63;;
2892;SDS011;1456;51.840;12.184;2023-02-22T15:29:37;8.53;;;6.50;;
2892;SDS011;1456;51.840;12.184;2023-02-22T15:35:13;6.30;;;6.00;;
2892;SDS011;1456;51.840;12.184;2023-02-22T15:40:22;4.53;;;4.13;;
2892;SDS011;1456;51.840;12.184;2023-02-22T15:42:50;5.53;;;4.00;;
2892;SDS011;1456;51.840;12.184;2023-02-22T15:45:19;2.27;;;2.17;;
2892;SDS011;1456;51.840;12.184;2023-02-22T15:47:49;1.60;;;1.60;;
2892;SDS011;1456;51.840;12.184;2023-02-22T15:55:55;5.23;;;4.90;;
2892;SDS011;1456;51.840;12.184;2023-02-22T15:58:25;3.20;;;3.00;;
2892;SDS011;1456;51.840;12.184;2023-02-22T16:01:04;3.03;;;2.87;;
2892;SDS011;1456;51.840;12.184;2023-02-22T16:03:41;8.80;;;5.40;;
2892;SDS011;1456;51.840;12.184;2023-02-22T16:06:19;3.40;;;3.20;;
2892;SDS011;1456;51.840;12.184;2023-02-22T16:09:16;3.50;;;3.20;;
2892;SDS011;1456;51.840;12.184;2023-02-22T16:11:47;3.70;;;3.40;;
2892;SDS011;1456;51.840;12.184;2023-02-22T16:19:50;3.27;;;2.20;;
2892;SDS011;1456;51.840;12.184;2023-02-22T16:22:27;1.47;;;1.47;;
2892;SDS011;1456;51.840;12.184;2023-02-22T16:28:00;2.50;;;2.40;;
2892;SDS011;1456;51.840;12.184;2023-02-22T16:33:05;6.70;;;5.67;;
2892;SDS011;1456;51.840;12.184;2023-02-22T16:35:41;3.40;;;1.90;;
2892;SDS011;1456;51.840;12.184;2023-02-22T16:38:16;1.57;;;1.57;;
2892;SDS011;1456;51.840;12.184;2023-02-22T16:40:49;12.43;;;2.40;;
2892;SDS011;1456;51.840;12.184;2023-02-22T16:43:29;1.57;;;1.27;;
2892;SDS011;1456;51.840;12.184;2023-02-22T16:45:59;2.40;;;2.20;;
2892;SDS011;1456;51.840;12.184;2023-02-22T16:48:28;2.47;;;2.23;;
2892;SDS011;1456;51.840;12.184;2023-02-22T16:50:59;1.87;;;1.77;;
2892;SDS011;1456;51.840;12.184;2023-02-22T16:53:41;2.03;;;1.03;;
2892;SDS011;1456;51.840;12.184;2023-02-22T16:56:19;5.57;;;1.63;;
2892;SDS011;1456;51.840;12.184;2023-02-22T16:58:51;11.00;;;3.37;;
2892;SDS011;1456;51.840;12.184;2023-02-22T17:01:17;3.97;;;3.67;;
2892;SDS011;1456;51.840;12.184;2023-02-22T17:03:44;1.87;;;1.73;;
2892;SDS011;1456;51.840;12.184;2023-02-22T17:06:11;1.87;;;1.77;;
2892;SDS011;1456;51.840;12.184;2023-02-22T17:08:39;9.70;;;2.13;;
2892;SDS011;1456;51.840;12.184;2023-02-22T17:11:08;3.53;;;2.53;;
2892;SDS011;1456;51.840;12.184;2023-02-22T17:13:39;2.10;;;2.00;;
2892;SDS011;1456;51.840;12.184;2023-02-22T17:16:05;1.63;;;1.53;;
2892;SDS011;1456;51.840;12.184;2023-02-22T17:18:31;3.00;;;1.27;;
2892;SDS011;1456;51.840;12.184;2023-02-22T17:20:58;7.57;;;3.47;;
2892;SDS011;1456;51.840;12.184;2023-02-22T17:23:26;1.67;;;1.57;;
2892;SDS011;1456;51.840;12.184;2023-02-22T17:25:56;3.23;;;2.90;;
2892;SDS011;1456;51.840;12.184;2023-02-22T17:28:24;1.77;;;1.67;;
2892;SDS011;1456;51.840;12.184;2023-02-22T17:30:52;1.00;;;1.00;;
2892;SDS011;1456;51.840;12.184;2023-02-22T17:33:20;0.70;;;0.70;;
2892;SDS011;1456;51.840;12.184;2023-02-22T17:35:50;2.43;;;1.40;;
2892;SDS011;1456;51.840;12.184;2023-02-22T17:38:17;2.20;;;1.30;;
2892;SDS011;1456;51.840;12.184;2023-02-22T17:40:46;1.73;;;1.67;;
2892;SDS011;1456;51.840;12.184;2023-02-22T17:43:18;2.50;;;2.30;;
2892;SDS011;1456;51.840;12.184;2023-02-22T17:45:44;1.30;;;1.20;;
2892;SDS011;1456;51.840;12.184;2023-02-22T17:48:17;1.07;;;1.07;;
2892;SDS011;1456;51.840;12.184;2023-02-22T17:50:44;4.73;;;4.37;;
2892;SDS011;1456;51.840;12.184;2023-02-22T17:53:12;8.13;;;7.63;;
2892;SDS011;1456;51.840;12.184;2023-02-22T17:55:39;7.63;;;6.13;;
2892;SDS011;1456;51.840;12.184;2023-02-22T17:58:07;2.77;;;2.70;;
2892;SDS011;1456;51.840;12.184;2023-02-22T18:00:38;3.93;;;3.63;;
2892;SDS011;1456;51.840;12.184;2023-02-22T18:03:09;7.70;;;1.87;;
2892;SDS011;1456;51.840;12.184;2023-02-22T18:05:41;1.03;;;1.03;;
2892;SDS011;1456;51.840;12.184;2023-02-22T18:10:42;4.00;;;3.10;;
2892;SDS011;1456;51.840;12.184;2023-02-22T18:13:10;4.17;;;3.87;;
2892;SDS011;1456;51.840;12.184;2023-02-22T18:15:39;4.77;;;4.50;;
2892;SDS011;1456;51.840;12.184;2023-02-22T18:18:05;2.57;;;2.40;;
2892;SDS011;1456;51.840;12.184;2023-02-22T18:20:31;2.03;;;1.93;;
2892;SDS011;1456;51.840;12.184;2023-02-22T18:23:11;1.00;;;1.00;;
2892;SDS011;1456;51.840;12.184;2023-02-22T18:25:48;2.53;;;2.33;;
2892;SDS011;1456;51.840;12.184;2023-02-22T18:28:16;1.27;;;0.93;;
2892;SDS011;1456;51.840;12.184;2023-02-22T18:30:46;2.20;;;2.00;;
2892;SDS011;1456;51.840;12.184;2023-02-22T18:33:13;1.00;;;1.00;;
2892;SDS011;1456;51.840;12.184;2023-02-22T18:35:42;0.77;;;0.77;;
2892;SDS011;1456;51.840;12.184;2023-02-22T18:38:12;0.90;;;0.90;;
2892;SDS011;1456;51.840;12.184;2023-02-22T18:43:12;2.00;;;1.90;;
2892;SDS011;1456;51.840;12.184;2023-02-22T18:45:37;0.73;;;0.73;;
2892;SDS011;1456;51.840;12.184;2023-02-22T18:48:03;0.63;;;0.63;;
2892;SDS011;1456;51.840;12.184;2023-02-22T18:50:29;7.53;;;3.33;;
2892;SDS011;1456;51.840;12.184;2023-02-22T18:52:54;1.23;;;1.13;;
2892;SDS011;1456;51.840;12.184;2023-02-22T18:55:20;2.30;;;1.37;;
2892;SDS011;1456;51.840;12.184;2023-02-22T18:57:47;1.07;;;0.97;;
2892;SDS011;1456;51.840;12.184;2023-02-22T19:00:17;0.57;;;0.57;;
2892;SDS011;1456;51.840;12.184;2023-02-22T19:02:49;1.27;;;0.90;;
2892;SDS011;1456;51.840;12.184;2023-02-22T19:05:16;2.53;;;1.33;;
2892;SDS011;1456;51.840;12.184;2023-02-22T19:07:41;0.93;;;0.93;;